createdAt,value
2022-12-28T00:01:46.670Z,0.50
2022-12-28T00:04:15.679Z,0.50
2022-12-28T00:06:42.876Z,0.50
2022-12-28T00:09:12.851Z,0.80
2022-12-28T00:15:46.008Z,0.70
2022-12-28T00:18:12.944Z,0.60
2022-12-28T00:20:39.925Z,0.70
2022-12-28T00:23:06.972Z,0.70
2022-12-28T00:25:37.085Z,0.60
2022-12-28T00:28:04.309Z,0.70
2022-12-28T00:30:31.252Z,0.80
2022-12-28T00:32:58.587Z,1.00
2022-12-28T00:35:25.552Z,1.00
2022-12-28T00:37:53.340Z,0.90
2022-12-28T00:40:23.926Z,1.10
2022-12-28T00:42:51.298Z,1.00
2022-12-28T00:45:18.323Z,1.10
2022-12-28T00:47:45.318Z,1.50
2022-12-28T00:50:12.410Z,1.10
2022-12-28T00:52:39.379Z,1.10
2022-12-28T00:55:06.586Z,1.10
2022-12-28T00:57:33.887Z,1.20
2022-12-28T01:00:00.843Z,1.20
2022-12-28T01:02:27.816Z,1.40
2022-12-28T01:04:54.786Z,1.40
2022-12-28T01:07:21.766Z,1.40
2022-12-28T01:09:48.754Z,1.50
2022-12-28T01:12:15.697Z,1.50
2022-12-28T01:14:42.643Z,1.50
2022-12-28T01:17:09.612Z,1.40
2022-12-28T01:19:36.614Z,1.50
2022-12-28T01:22:03.743Z,1.50
2022-12-28T01:24:30.691Z,1.60
2022-12-28T01:26:57.677Z,1.60
2022-12-28T01:29:24.630Z,1.50
2022-12-28T01:31:51.660Z,1.40
2022-12-28T01:34:18.608Z,1.40
2022-12-28T01:36:45.621Z,1.50
2022-12-28T01:39:12.602Z,1.70
2022-12-28T01:41:42.359Z,1.50
2022-12-28T01:44:10.400Z,1.60
2022-12-28T01:46:55.008Z,1.70
2022-12-28T01:49:41.357Z,1.80
2022-12-28T01:52:17.388Z,1.90
2022-12-28T01:54:54.322Z,2.40
2022-12-28T01:57:28.831Z,2.90
2022-12-28T02:00:08.775Z,2.40
2022-12-28T02:02:36.853Z,2.50
2022-12-28T02:05:04.932Z,2.60
2022-12-28T02:07:49.952Z,2.60
2022-12-28T02:10:44.000Z,2.60
2022-12-28T02:13:06.797Z,2.70
2022-12-28T02:15:33.866Z,3.00
2022-12-28T02:18:01.194Z,2.70
2022-12-28T02:20:44.663Z,2.80
2022-12-28T02:23:38.779Z,2.70
2022-12-28T02:26:35.171Z,2.70
2022-12-28T02:29:25.521Z,2.70
2022-12-28T02:32:13.803Z,2.90
2022-12-28T02:34:48.520Z,2.70
2022-12-28T02:37:42.344Z,2.70
2022-12-28T02:40:17.816Z,2.70
2022-12-28T02:42:46.598Z,2.70
2022-12-28T02:45:57.635Z,2.80
2022-12-28T02:48:43.601Z,2.80
2022-12-28T02:51:39.597Z,2.90
2022-12-28T02:54:33.916Z,3.00
2022-12-28T02:57:34.311Z,3.10
2022-12-28T03:00:06.954Z,3.20
2022-12-28T03:03:04.002Z,3.20
2022-12-28T03:06:16.021Z,3.30
2022-12-28T03:09:18.125Z,3.30
2022-12-28T03:11:53.562Z,3.30
2022-12-28T03:14:48.508Z,3.80
2022-12-28T03:17:37.813Z,3.40
2022-12-28T03:20:30.879Z,3.50
2022-12-28T03:23:19.554Z,3.40
2022-12-28T03:26:06.146Z,3.50
2022-12-28T03:28:53.820Z,3.80
2022-12-28T03:31:25.171Z,3.70
2022-12-28T03:34:06.769Z,3.60
2022-12-28T03:36:52.139Z,3.60
2022-12-28T03:40:03.502Z,3.60
2022-12-28T03:43:06.035Z,3.60
2022-12-28T03:46:04.946Z,3.60
2022-12-28T03:48:34.764Z,3.60
2022-12-28T03:51:01.753Z,3.70
2022-12-28T03:53:41.267Z,3.80
2022-12-28T03:56:15.480Z,3.90
2022-12-28T03:58:42.966Z,3.70
2022-12-28T04:01:10.381Z,3.70
2022-12-28T04:03:37.958Z,3.70
2022-12-28T04:06:05.734Z,3.70
2022-12-28T04:08:34.487Z,3.70
2022-12-28T04:11:02.068Z,3.70
2022-12-28T04:13:32.963Z,3.70
2022-12-28T04:16:07.197Z,3.70
2022-12-28T04:18:34.837Z,3.80
2022-12-28T04:21:02.444Z,3.80
2022-12-28T04:23:31.055Z,3.90
2022-12-28T04:26:02.406Z,3.90
2022-12-28T04:28:30.372Z,3.90
2022-12-28T04:30:58.791Z,3.90
2022-12-28T04:33:26.583Z,3.90
2022-12-28T04:35:54.159Z,4.00
2022-12-28T04:38:21.850Z,4.00
2022-12-28T04:40:48.835Z,4.00
2022-12-28T04:43:15.898Z,4.00
2022-12-28T04:45:42.883Z,4.00
2022-12-28T04:48:09.853Z,4.00
2022-12-28T04:50:37.588Z,4.10
2022-12-28T04:53:04.561Z,4.10
2022-12-28T04:55:33.555Z,4.10
2022-12-28T04:58:01.180Z,4.00
2022-12-28T05:00:28.217Z,4.10
2022-12-28T05:02:58.905Z,4.10
2022-12-28T05:05:26.843Z,4.20
2022-12-28T05:07:53.920Z,4.20
2022-12-28T05:10:21.249Z,4.20
2022-12-28T05:12:48.419Z,4.30
2022-12-28T05:15:15.467Z,4.30
2022-12-28T05:17:42.406Z,4.30
2022-12-28T05:20:10.088Z,4.30
2022-12-28T05:22:40.830Z,4.30
2022-12-28T05:25:08.705Z,4.40
2022-12-28T05:27:35.686Z,4.30
2022-12-28T05:30:02.668Z,4.40
2022-12-28T05:32:29.682Z,4.40
2022-12-28T05:34:56.724Z,4.40
2022-12-28T05:37:23.858Z,4.40
2022-12-28T05:39:50.851Z,4.50
2022-12-28T05:42:17.899Z,4.50
2022-12-28T05:44:44.822Z,4.40
2022-12-28T05:47:11.873Z,4.40
2022-12-28T05:49:38.865Z,4.40
2022-12-28T05:52:05.848Z,4.40
2022-12-28T05:54:32.787Z,4.40
2022-12-28T05:56:59.952Z,4.40
2022-12-28T05:59:27.180Z,4.50
2022-12-28T06:01:59.408Z,4.50
2022-12-28T06:04:26.831Z,4.50
2022-12-28T06:07:01.308Z,4.50
2022-12-28T06:09:28.310Z,4.50
2022-12-28T06:11:55.298Z,4.50
2022-12-28T06:14:22.422Z,4.50
2022-12-28T06:16:49.656Z,4.00
2022-12-28T06:19:16.783Z,4.40
2022-12-28T06:21:44.184Z,4.40
2022-12-28T06:24:13.923Z,4.40
2022-12-28T06:26:42.041Z,4.30
2022-12-28T06:29:10.125Z,4.30
2022-12-28T06:31:40.646Z,4.30
2022-12-28T06:34:09.831Z,4.40
2022-12-28T06:36:42.495Z,4.40
2022-12-28T06:39:13.529Z,4.40
2022-12-28T06:41:41.214Z,4.30
2022-12-28T06:44:10.844Z,4.40
2022-12-28T06:46:38.564Z,4.40
2022-12-28T06:49:06.054Z,4.40
2022-12-28T06:51:42.340Z,4.40
2022-12-28T06:54:12.600Z,4.40
2022-12-28T06:56:40.007Z,4.40
2022-12-28T06:59:07.504Z,4.50
2022-12-28T07:01:40.709Z,4.40
2022-12-28T07:04:09.648Z,4.40
2022-12-28T07:06:44.485Z,4.40
2022-12-28T07:09:14.872Z,4.50
2022-12-28T07:11:43.150Z,4.50
2022-12-28T07:14:10.394Z,4.50
2022-12-28T07:19:03.653Z,4.50
2022-12-28T07:21:36.758Z,4.60
2022-12-28T07:24:05.698Z,4.60
2022-12-28T07:26:35.419Z,4.60
2022-12-28T07:29:04.865Z,4.60
2022-12-28T07:31:41.703Z,4.60
2022-12-28T07:34:11.381Z,4.60
2022-12-28T07:36:38.449Z,4.60
2022-12-28T07:39:05.488Z,4.60
2022-12-28T07:41:34.236Z,4.70
2022-12-28T07:44:02.265Z,4.70
2022-12-28T07:46:34.069Z,4.70
2022-12-28T07:49:01.319Z,4.70
2022-12-28T07:51:37.165Z,4.80
2022-12-28T07:54:05.473Z,4.80
2022-12-28T07:59:05.619Z,4.90
2022-12-28T08:01:35.918Z,4.90
2022-12-28T08:04:07.827Z,5.00
2022-12-28T08:06:38.702Z,5.50
2022-12-28T08:09:07.374Z,5.20
2022-12-28T08:11:38.238Z,5.30
2022-12-28T08:14:06.633Z,5.30
2022-12-28T08:16:39.892Z,5.40
2022-12-28T08:19:08.546Z,5.40
2022-12-28T08:21:40.221Z,5.40
2022-12-28T08:24:09.339Z,5.40
2022-12-28T08:26:40.394Z,5.50
2022-12-28T08:29:12.627Z,5.50
2022-12-28T08:31:42.683Z,5.50
2022-12-28T08:34:18.536Z,5.60
2022-12-28T08:36:45.782Z,5.60
2022-12-28T08:39:12.798Z,5.70
2022-12-28T08:41:40.399Z,5.70
2022-12-28T08:44:07.431Z,5.70
2022-12-28T08:46:36.338Z,5.70
2022-12-28T08:49:05.909Z,5.80
2022-12-28T08:51:41.890Z,5.80
2022-12-28T08:54:12.528Z,5.90
2022-12-28T08:56:42.995Z,5.90
2022-12-28T08:59:17.061Z,6.00
2022-12-28T09:01:45.700Z,6.00
2022-12-28T09:04:19.708Z,6.10
2022-12-28T09:06:47.823Z,6.20
2022-12-28T09:09:17.850Z,6.20
2022-12-28T09:11:45.072Z,6.20
2022-12-28T09:14:22.066Z,6.30
2022-12-28T09:16:50.099Z,6.30
2022-12-28T09:19:17.304Z,6.30
2022-12-28T09:21:48.946Z,6.40
2022-12-28T09:24:16.469Z,6.50
2022-12-28T09:26:43.854Z,6.60
2022-12-28T09:29:13.870Z,6.70
2022-12-28T09:31:42.055Z,6.80
2022-12-28T09:37:12.216Z,7.10
2022-12-28T09:39:48.513Z,7.20
2022-12-28T09:42:29.138Z,7.30
2022-12-28T09:45:11.436Z,7.30
2022-12-28T09:47:44.714Z,7.30
2022-12-28T09:50:17.667Z,7.40
2022-12-28T09:53:05.397Z,7.40
2022-12-28T09:55:37.167Z,7.30
2022-12-28T09:58:13.224Z,7.30
2022-12-28T10:00:56.405Z,7.30
2022-12-28T10:03:44.464Z,7.30
2022-12-28T10:06:28.717Z,7.40
2022-12-28T10:08:59.554Z,7.40
2022-12-28T10:11:35.125Z,7.40
2022-12-28T10:14:17.187Z,7.40
2022-12-28T10:16:48.703Z,7.40
2022-12-28T10:19:23.843Z,7.50
2022-12-28T10:22:14.171Z,7.50
2022-12-28T10:24:42.227Z,7.50
2022-12-28T10:27:25.364Z,7.50
2022-12-28T10:29:53.820Z,7.50
2022-12-28T10:32:27.332Z,7.60
2022-12-28T10:35:03.938Z,7.70
2022-12-28T10:37:35.685Z,7.90
2022-12-28T10:40:15.059Z,8.10
2022-12-28T10:42:46.789Z,8.10
2022-12-28T10:45:23.788Z,8.30
2022-12-28T10:47:54.348Z,8.40
2022-12-28T10:50:51.400Z,8.50
2022-12-28T10:53:29.107Z,8.50
2022-12-28T10:56:31.760Z,8.70
2022-12-28T10:59:11.283Z,8.90
2022-12-28T11:01:40.020Z,8.90
2022-12-28T11:04:25.296Z,8.90
2022-12-28T11:06:53.678Z,8.80
2022-12-28T11:09:23.706Z,8.60
2022-12-28T11:11:53.966Z,8.60
2022-12-28T11:14:35.476Z,8.80
2022-12-28T11:17:25.742Z,8.80
2022-12-28T11:20:01.134Z,8.80
2022-12-28T11:22:30.295Z,8.70
2022-12-28T11:24:59.611Z,8.60
2022-12-28T11:27:27.045Z,8.50
2022-12-28T11:29:56.221Z,8.40
2022-12-28T11:32:57.231Z,8.40
2022-12-28T11:35:30.063Z,8.40
2022-12-28T11:38:03.473Z,8.40
2022-12-28T11:40:52.655Z,8.40
2022-12-28T11:43:28.568Z,8.40
2022-12-28T11:46:19.041Z,8.40
2022-12-28T11:49:23.894Z,8.50
2022-12-28T11:52:17.589Z,8.50
2022-12-28T11:55:01.369Z,8.70
2022-12-28T11:57:43.499Z,8.80
2022-12-28T12:00:22.879Z,8.90
2022-12-28T12:03:02.460Z,9.20
2022-12-28T12:05:38.475Z,9.40
2022-12-28T12:08:17.227Z,9.50
2022-12-28T12:10:49.376Z,9.60
2022-12-28T12:13:28.444Z,9.50
2022-12-28T12:16:17.656Z,9.40
2022-12-28T12:18:51.736Z,9.40
2022-12-28T12:21:36.595Z,9.40
2022-12-28T12:24:20.953Z,9.50
2022-12-28T12:26:58.709Z,9.60
2022-12-28T12:29:44.819Z,9.70
2022-12-28T12:32:41.923Z,9.70
2022-12-28T12:35:17.913Z,9.70
2022-12-28T12:38:13.630Z,9.70
2022-12-28T12:41:00.664Z,9.70
2022-12-28T12:43:57.045Z,9.60
2022-12-28T12:47:15.193Z,9.50
2022-12-28T12:50:13.315Z,9.50
2022-12-28T12:53:32.871Z,9.40
2022-12-28T12:56:33.566Z,9.40
2022-12-28T12:59:29.815Z,9.40
2022-12-28T13:02:12.344Z,9.40
2022-12-28T13:04:46.140Z,9.30
2022-12-28T13:07:24.504Z,9.30
2022-12-28T13:09:55.355Z,9.20
2022-12-28T13:12:23.959Z,9.20
2022-12-28T13:15:07.512Z,9.10
2022-12-28T13:17:39.573Z,9.10
2022-12-28T13:20:21.874Z,9.10
2022-12-28T13:22:50.033Z,9.10
2022-12-28T13:25:47.863Z,9.10
2022-12-28T13:28:57.680Z,9.10
2022-12-28T13:31:35.862Z,9.10
2022-12-28T13:34:13.331Z,9.10
2022-12-28T13:36:58.369Z,9.10
2022-12-28T13:39:29.598Z,9.10
2022-12-28T13:42:00.615Z,9.10
2022-12-28T13:44:30.792Z,9.10
2022-12-28T13:47:35.915Z,9.10
2022-12-28T13:50:14.415Z,9.10
2022-12-28T13:52:59.392Z,9.10
2022-12-28T13:55:43.362Z,9.10
2022-12-28T13:58:20.347Z,9.10
2022-12-28T14:00:50.147Z,9.10
2022-12-28T14:03:19.895Z,9.10
2022-12-28T14:05:59.309Z,9.10
2022-12-28T14:08:28.829Z,9.10
2022-12-28T14:10:56.844Z,9.00
2022-12-28T14:13:24.656Z,9.00
2022-12-28T14:15:52.551Z,9.00
2022-12-28T14:18:19.984Z,8.90
2022-12-28T14:20:49.004Z,8.90
2022-12-28T14:23:34.418Z,8.90
2022-12-28T14:26:10.968Z,8.90
2022-12-28T14:28:48.495Z,9.00
2022-12-28T14:31:24.156Z,9.10
2022-12-28T14:34:02.955Z,9.20
2022-12-28T14:36:39.566Z,9.20
2022-12-28T14:39:07.691Z,9.10
2022-12-28T14:41:40.766Z,9.00
2022-12-28T14:44:24.508Z,8.90
2022-12-28T14:46:54.603Z,8.90
2022-12-28T14:49:34.853Z,8.90
2022-12-28T14:52:10.723Z,8.80
2022-12-28T14:54:46.292Z,8.80
2022-12-28T14:57:27.731Z,8.80
2022-12-28T15:00:23.876Z,8.80
2022-12-28T15:02:51.541Z,8.70
2022-12-28T15:05:41.396Z,8.70
2022-12-28T15:08:10.287Z,8.60
2022-12-28T15:11:00.675Z,8.50
2022-12-28T15:13:28.382Z,8.60
2022-12-28T15:16:02.250Z,8.50
2022-12-28T15:18:30.883Z,8.50
2022-12-28T15:21:03.598Z,8.50
2022-12-28T15:23:31.075Z,8.50
2022-12-28T15:25:58.253Z,8.40
2022-12-28T15:28:26.207Z,8.40
2022-12-28T15:30:53.209Z,8.40
2022-12-28T15:33:20.223Z,8.30
2022-12-28T15:35:47.176Z,8.30
2022-12-28T15:38:14.280Z,8.30
2022-12-28T15:40:41.492Z,8.20
2022-12-28T15:43:10.060Z,8.20
2022-12-28T15:45:37.311Z,8.20
2022-12-28T15:48:05.207Z,8.10
2022-12-28T15:50:32.468Z,8.10
2022-12-28T15:53:00.197Z,8.00
2022-12-28T15:55:27.117Z,8.00
2022-12-28T15:57:54.217Z,8.00
2022-12-28T16:00:21.621Z,8.00
2022-12-28T16:02:48.727Z,8.00
2022-12-28T16:05:16.155Z,8.00
2022-12-28T16:07:43.441Z,8.00
2022-12-28T16:10:10.646Z,7.90
2022-12-28T16:12:37.689Z,7.90
2022-12-28T16:15:05.510Z,7.90
2022-12-28T16:17:32.589Z,7.90
2022-12-28T16:19:59.522Z,7.80
2022-12-28T16:22:28.567Z,7.80
2022-12-28T16:24:55.545Z,7.80
2022-12-28T16:27:22.581Z,7.80
2022-12-28T16:29:53.989Z,7.80
2022-12-28T16:32:24.092Z,7.80
2022-12-28T16:34:51.123Z,7.80
2022-12-28T16:37:18.485Z,7.80
2022-12-28T16:39:46.024Z,7.70
2022-12-28T16:42:13.104Z,7.70
2022-12-28T16:44:40.551Z,7.70
2022-12-28T16:47:07.794Z,7.60
2022-12-28T16:49:41.495Z,7.60
2022-12-28T16:52:08.659Z,7.60
2022-12-28T16:54:37.455Z,7.70
2022-12-28T16:57:04.426Z,7.60
2022-12-28T16:59:31.560Z,7.60
2022-12-28T17:01:59.294Z,7.60
2022-12-28T17:04:26.626Z,7.50
2022-12-28T17:06:53.874Z,7.50
2022-12-28T17:09:21.376Z,7.50
2022-12-28T17:11:50.980Z,7.50
2022-12-28T17:14:35.988Z,7.50
2022-12-28T17:17:06.211Z,7.50
2022-12-28T17:19:34.037Z,7.50
2022-12-28T17:22:04.086Z,7.50
2022-12-28T17:24:31.532Z,7.50
2022-12-28T17:27:05.235Z,7.50
2022-12-28T17:29:35.215Z,7.40
2022-12-28T17:32:02.323Z,7.40
2022-12-28T17:34:30.908Z,7.40
2022-12-28T17:36:57.969Z,7.50
2022-12-28T17:39:25.939Z,7.50
2022-12-28T17:41:52.966Z,7.50
2022-12-28T17:44:20.151Z,7.50
2022-12-28T17:46:47.465Z,7.50
2022-12-28T17:49:16.174Z,7.50
2022-12-28T17:51:44.958Z,7.50
2022-12-28T17:54:14.835Z,7.50
2022-12-28T17:56:46.715Z,7.50
2022-12-28T17:59:16.975Z,7.60
2022-12-28T18:01:45.961Z,8.20
2022-12-28T18:04:13.071Z,7.70
2022-12-28T18:06:40.312Z,7.70
2022-12-28T18:09:08.422Z,7.70
2022-12-28T18:11:36.387Z,7.80
2022-12-28T18:14:03.982Z,7.80
2022-12-28T18:16:31.185Z,7.90
2022-12-28T18:18:59.912Z,7.80
2022-12-28T18:21:27.103Z,7.80
2022-12-28T18:23:54.046Z,7.80
2022-12-28T18:26:26.444Z,7.80
2022-12-28T18:28:55.986Z,7.80
2022-12-28T18:31:29.428Z,7.80
2022-12-28T18:33:56.659Z,7.70
2022-12-28T18:36:23.650Z,7.80
2022-12-28T18:38:50.855Z,7.80
2022-12-28T18:41:21.192Z,7.80
2022-12-28T18:43:51.020Z,7.80
2022-12-28T18:46:18.352Z,7.60
2022-12-28T18:48:45.454Z,7.80
2022-12-28T18:51:17.306Z,7.80
2022-12-28T18:53:45.559Z,7.80
2022-12-28T18:56:19.285Z,7.80
2022-12-28T18:58:52.504Z,7.80
2022-12-28T19:04:11.403Z,7.80
2022-12-28T19:06:39.320Z,7.70
2022-12-28T19:09:07.884Z,7.80
2022-12-28T19:11:36.411Z,7.80
2022-12-28T19:14:09.980Z,7.80
2022-12-28T19:16:37.104Z,7.90
2022-12-28T19:19:04.456Z,8.00
2022-12-28T19:21:36.949Z,8.00
2022-12-28T19:24:18.381Z,8.10
2022-12-28T19:26:46.996Z,8.10
2022-12-28T19:29:16.081Z,8.10
2022-12-28T19:31:43.432Z,8.20
2022-12-28T19:34:10.475Z,8.20
2022-12-28T19:36:37.647Z,8.30
2022-12-28T19:39:04.705Z,8.50
2022-12-28T19:41:35.640Z,8.50
2022-12-28T19:44:04.389Z,8.60
2022-12-28T19:46:32.321Z,8.70
2022-12-28T19:49:02.435Z,8.70
2022-12-28T19:51:32.327Z,8.70
2022-12-28T19:54:01.121Z,8.70
2022-12-28T19:56:28.416Z,8.90
2022-12-28T19:59:03.099Z,8.90
2022-12-28T20:01:32.482Z,8.90
2022-12-28T20:04:00.051Z,8.80
2022-12-28T20:06:30.015Z,8.90
2022-12-28T20:09:00.720Z,8.90
2022-12-28T20:11:29.637Z,8.90
2022-12-28T20:14:20.416Z,8.90
2022-12-28T20:17:17.116Z,8.80
2022-12-28T20:19:58.156Z,8.80
2022-12-28T20:22:29.505Z,8.80
2022-12-28T20:25:08.597Z,8.80
2022-12-28T20:27:36.309Z,8.80
2022-12-28T20:30:04.040Z,8.80
2022-12-28T20:32:30.961Z,8.80
2022-12-28T20:34:58.077Z,8.80
2022-12-28T20:37:25.088Z,8.70
2022-12-28T20:39:52.075Z,9.00
2022-12-28T20:42:37.864Z,8.60
2022-12-28T20:45:05.558Z,8.50
2022-12-28T20:47:32.873Z,8.50
2022-12-28T20:50:00.440Z,8.50
2022-12-28T20:52:27.471Z,8.50
2022-12-28T20:54:54.385Z,8.40
2022-12-28T20:57:29.795Z,8.40
2022-12-28T20:59:56.778Z,8.40
2022-12-28T21:02:23.798Z,8.40
2022-12-28T21:04:51.021Z,8.40
2022-12-28T21:07:19.628Z,8.50
2022-12-28T21:09:50.725Z,8.50
2022-12-28T21:12:17.853Z,8.50
2022-12-28T21:14:45.061Z,8.50
2022-12-28T21:17:22.597Z,8.50
2022-12-28T21:19:54.301Z,8.40
2022-12-28T21:22:23.832Z,8.30
2022-12-28T21:24:50.953Z,8.40
2022-12-28T21:27:17.893Z,8.40
2022-12-28T21:29:44.869Z,8.40
2022-12-28T21:32:13.182Z,8.40
2022-12-28T21:34:40.178Z,8.50
2022-12-28T21:37:25.817Z,8.50
2022-12-28T21:39:52.766Z,8.50
2022-12-28T21:42:19.701Z,8.50
2022-12-28T21:44:46.666Z,8.50
2022-12-28T21:47:13.606Z,8.50
2022-12-28T21:49:43.328Z,8.50
2022-12-28T21:52:10.286Z,8.50
2022-12-28T21:54:37.629Z,8.60
2022-12-28T21:57:07.843Z,8.60
2022-12-28T21:59:34.817Z,8.60
2022-12-28T22:02:20.694Z,8.60
2022-12-28T22:05:06.247Z,8.70
2022-12-28T22:07:35.169Z,8.70
2022-12-28T22:10:20.639Z,8.80
2022-12-28T22:12:47.572Z,8.80
2022-12-28T22:15:39.424Z,8.70
2022-12-28T22:21:08.025Z,8.60
2022-12-28T22:23:35.309Z,8.70
2022-12-28T22:26:02.820Z,8.70
2022-12-28T22:28:29.999Z,8.70
2022-12-28T22:30:56.954Z,8.80
2022-12-28T22:33:23.977Z,8.70
2022-12-28T22:35:51.000Z,8.60
2022-12-28T22:38:18.022Z,8.60
2022-12-28T22:40:44.969Z,8.70
2022-12-28T22:43:11.911Z,8.70
2022-12-28T22:45:38.904Z,8.60
2022-12-28T22:48:06.222Z,8.60
2022-12-28T22:50:36.867Z,8.70
2022-12-28T22:53:06.801Z,8.60
2022-12-28T22:55:33.793Z,8.70
2022-12-28T22:58:00.764Z,8.70
2022-12-28T23:00:27.700Z,8.80
2022-12-28T23:02:54.741Z,9.10
2022-12-28T23:05:21.933Z,9.30
2022-12-28T23:07:48.885Z,9.50
2022-12-28T23:10:15.963Z,9.80
2022-12-28T23:12:43.042Z,10.30
2022-12-28T23:15:19.058Z,10.30
2022-12-28T23:17:48.608Z,10.20
2022-12-28T23:20:34.665Z,10.30
2022-12-28T23:23:19.913Z,10.30
2022-12-28T23:26:05.516Z,10.20
2022-12-28T23:28:35.816Z,10.30
2022-12-28T23:31:03.455Z,10.70
2022-12-28T23:33:30.508Z,10.70
2022-12-28T23:36:02.992Z,11.40
2022-12-28T23:38:32.926Z,11.70
2022-12-28T23:41:24.331Z,11.60
2022-12-28T23:43:51.658Z,11.60
2022-12-28T23:46:18.659Z,11.50
2022-12-28T23:48:45.666Z,11.40
2022-12-28T23:51:12.644Z,11.40
2022-12-28T23:53:39.604Z,11.40
2022-12-28T23:56:07.294Z,11.50
2022-12-28T23:58:34.235Z,11.60
